Flight Number: AVA5110 Duration: 4:00
Departure: Accra Kotoka Intl (DGAA) at 17:00 Distance: 1878.06 Nm
Arrival: Algiers Dar-El-Beida (DAAG) at 21:00 Equipment: B757-200

Weather Information
Accra, Ghana (DGAA) 05-36N 000-10W 69M Jan 16, 2021 - 01:00 PM EST / 2021.01.16 1800 UTC
Wind: from the SW (220 degrees) at 13 MPH (11 KT):0
Visibility: greater than 7 mile(s):0
Sky conditions: mostly clear Weather: Cumulonimbus clouds observed Temperature: 82 F (28 C) Dew Point: 75 F (24 C) Relative Humidity: 78% Pressure (altimeter): 29.77 in. Hg (1008 hPa)
ob: DGAA 161800Z 22011KT 9999 FEW030CB 28/24 Q1008 NOSIG cycle: 18
Sunrise: 06:18 Sunset: 18:03 (UTC)

Dar-El-Beida, Algeria (DAAG) 36-43N 003-15E 25M Jan 16, 2021 - 01:00 PM EST / 2021.01.16 1800 UTC
Wind: from the NE (040 degrees) at 5 MPH (4 KT):0
Visibility: greater than 7 mile(s):0
Sky conditions: partly cloudy Temperature: 50 F (10 C) Dew Point: 39 F (4 C) Relative Humidity: 66% Pressure (altimeter): 30.36 in. Hg (1028 hPa)
ob: DAAG 161800Z 04004KT 9999 FEW020 SCT040 10/04 Q1028 cycle: 18
Sunrise: 07:01 Sunset: 16:53 (UTC)

TAF:2021/01/16 18:33 TAF TAF DAAG 161700Z 1618/1718 04010KT 9999 FEW020 SCT040 TEMPO 1618/1623 FEW020TCU BECMG 1619/1622 VRB02KT PROB30 TEMPO 1706/1716 FEW023TCU BECMG 1708/1711 22012KT

This route has never been flown.

Route map